Pulaski, Illinois
Current Conditions -  °F | °C
As of 6:15 PM on Sunday 23 Nov 2014 (Local Time) from KCIR Reporting Station
Moderate Rain Moderate Rain  
Wind Chill: 57°   Ceiling: 2400
Heat Index: 57°   Visibility: 4mi
Dew Point: 54°   Wind: 0mph
Humidity: 91%   Direction: NA
Pressure: 29.31"   Gusts: NA
Location:  37.21°N, 89.21°W
Report Text: KCIR 240015Z AUTO 00000KT 4SM RA SCT001 BKN024 OVC043 14/12 A2931 RMK AO2 P0003 T01370123
Loading
Personal Weather Stations






























Interactive Weather Map New forecast layout! Learn more

10-Day Weather Forecast

Advertisements
Track Severe Weather on mobile